Melrose, Ohio
Current Conditions -  °F | °C
As of 6:53 AM on Monday 20 Oct 2014 (Local Time) from KDFI Reporting Station
Light Rain Light Rain  
Wind Chill: 44°   Ceiling: 8000
Heat Index: 48°   Visibility: 8mi
Dew Point: 43°   Wind: 8mph
Humidity: 83%   Direction: 190°S
Pressure: 29.9"   Gusts: NA
Location:  41.09°N, 84.42°W
Report Text: KDFI 201053Z AUTO 19007KT 8SM -RA OVC080 09/06 A2990 RMK AO2 RAB51 SLP128 P0000 T00890061
Loading
Personal Weather Stations






























Interactive Weather Map
Tropical Storm Tracking
New forecast layout! Learn more

10-Day Weather Forecast

Advertisements
Track Severe Weather on mobile